sensor_id;sensor_type;location;lat;lon;timestamp;P1;durP1;ratioP1;P2;durP2;ratioP2
60026;SDS011;45891;53.006;6.512;2023-04-24T00:00:30;6.80;;;2.30;;
60026;SDS011;45891;53.006;6.512;2023-04-24T00:02:57;7.53;;;2.65;;
60026;SDS011;45891;53.006;6.512;2023-04-24T00:05:25;9.70;;;2.72;;
60026;SDS011;45891;53.006;6.512;2023-04-24T00:07:51;6.90;;;2.38;;
60026;SDS011;45891;53.006;6.512;2023-04-24T00:10:20;6.45;;;2.00;;
60026;SDS011;45891;53.006;6.512;2023-04-24T00:12:46;5.90;;;1.83;;
60026;SDS011;45891;53.006;6.512;2023-04-24T00:15:13;5.30;;;1.60;;
60026;SDS011;45891;53.006;6.512;2023-04-24T00:17:39;6.82;;;2.00;;
60026;SDS011;45891;53.006;6.512;2023-04-24T00:20:05;6.30;;;1.70;;
60026;SDS011;45891;53.006;6.512;2023-04-24T00:22:32;5.57;;;1.67;;
60026;SDS011;45891;53.006;6.512;2023-04-24T00:24:58;6.57;;;1.70;;
60026;SDS011;45891;53.006;6.512;2023-04-24T00:27:24;6.25;;;1.70;;
60026;SDS011;45891;53.006;6.512;2023-04-24T00:29:50;5.50;;;1.65;;
60026;SDS011;45891;53.006;6.512;2023-04-24T00:32:17;5.90;;;1.60;;
60026;SDS011;45891;53.006;6.512;2023-04-24T00:34:43;5.68;;;1.70;;
60026;SDS011;45891;53.006;6.512;2023-04-24T00:37:09;5.10;;;1.55;;
60026;SDS011;45891;53.006;6.512;2023-04-24T00:39:35;7.25;;;1.60;;
60026;SDS011;45891;53.006;6.512;2023-04-24T00:42:01;5.95;;;1.70;;
60026;SDS011;45891;53.006;6.512;2023-04-24T00:44:27;5.18;;;1.70;;
60026;SDS011;45891;53.006;6.512;2023-04-24T00:46:54;5.47;;;1.73;;
60026;SDS011;45891;53.006;6.512;2023-04-24T00:49:21;5.57;;;1.77;;
60026;SDS011;45891;53.006;6.512;2023-04-24T00:51:47;6.43;;;1.70;;
60026;SDS011;45891;53.006;6.512;2023-04-24T00:54:15;6.15;;;1.75;;
60026;SDS011;45891;53.006;6.512;2023-04-24T00:56:42;6.10;;;1.83;;
60026;SDS011;45891;53.006;6.512;2023-04-24T00:59:09;5.75;;;2.00;;
60026;SDS011;45891;53.006;6.512;2023-04-24T01:01:35;5.45;;;1.80;;
60026;SDS011;45891;53.006;6.512;2023-04-24T01:04:01;6.72;;;2.35;;
60026;SDS011;45891;53.006;6.512;2023-04-24T01:06:28;7.95;;;2.10;;
60026;SDS011;45891;53.006;6.512;2023-04-24T01:08:57;6.10;;;2.20;;
60026;SDS011;45891;53.006;6.512;2023-04-24T01:11:24;6.25;;;2.08;;
60026;SDS011;45891;53.006;6.512;2023-04-24T01:13:51;4.00;;;1.05;;
60026;SDS011;45891;53.006;6.512;2023-04-24T01:16:17;3.13;;;0.68;;
60026;SDS011;45891;53.006;6.512;2023-04-24T01:18:46;7.47;;;1.33;;
60026;SDS011;45891;53.006;6.512;2023-04-24T01:21:13;6.10;;;2.00;;
60026;SDS011;45891;53.006;6.512;2023-04-24T01:23:45;8.07;;;3.80;;
60026;SDS011;45891;53.006;6.512;2023-04-24T01:26:12;9.00;;;4.55;;
60026;SDS011;45891;53.006;6.512;2023-04-24T01:28:39;8.55;;;4.40;;
60026;SDS011;45891;53.006;6.512;2023-04-24T01:31:05;8.00;;;3.97;;
60026;SDS011;45891;53.006;6.512;2023-04-24T01:33:32;8.82;;;4.75;;
60026;SDS011;45891;53.006;6.512;2023-04-24T01:35:58;8.48;;;4.25;;
60026;SDS011;45891;53.006;6.512;2023-04-24T01:38:25;8.35;;;4.40;;
60026;SDS011;45891;53.006;6.512;2023-04-24T01:40:51;8.30;;;4.55;;
60026;SDS011;45891;53.006;6.512;2023-04-24T01:43:18;8.80;;;4.60;;
60026;SDS011;45891;53.006;6.512;2023-04-24T01:45:44;8.80;;;4.90;;
60026;SDS011;45891;53.006;6.512;2023-04-24T01:48:11;9.50;;;5.20;;
60026;SDS011;45891;53.006;6.512;2023-04-24T01:50:38;9.00;;;5.43;;
60026;SDS011;45891;53.006;6.512;2023-04-24T01:53:04;9.55;;;4.95;;
60026;SDS011;45891;53.006;6.512;2023-04-24T01:55:30;9.60;;;4.82;;
60026;SDS011;45891;53.006;6.512;2023-04-24T01:57:56;9.00;;;5.32;;
60026;SDS011;45891;53.006;6.512;2023-04-24T02:00:25;9.50;;;5.70;;
60026;SDS011;45891;53.006;6.512;2023-04-24T02:02:51;9.52;;;5.75;;
60026;SDS011;45891;53.006;6.512;2023-04-24T02:05:17;10.77;;;6.15;;
60026;SDS011;45891;53.006;6.512;2023-04-24T02:07:43;9.77;;;6.05;;
60026;SDS011;45891;53.006;6.512;2023-04-24T02:10:09;10.38;;;5.70;;
60026;SDS011;45891;53.006;6.512;2023-04-24T02:12:36;10.63;;;6.85;;
60026;SDS011;45891;53.006;6.512;2023-04-24T02:15:02;10.85;;;7.20;;
60026;SDS011;45891;53.006;6.512;2023-04-24T02:17:29;10.93;;;7.22;;
60026;SDS011;45891;53.006;6.512;2023-04-24T02:19:56;11.30;;;7.57;;
60026;SDS011;45891;53.006;6.512;2023-04-24T02:22:22;12.32;;;8.40;;
60026;SDS011;45891;53.006;6.512;2023-04-24T02:24:48;11.93;;;8.15;;
60026;SDS011;45891;53.006;6.512;2023-04-24T02:27:14;14.18;;;9.13;;
60026;SDS011;45891;53.006;6.512;2023-04-24T02:29:40;11.88;;;8.25;;
60026;SDS011;45891;53.006;6.512;2023-04-24T02:32:06;12.68;;;8.60;;
60026;SDS011;45891;53.006;6.512;2023-04-24T02:34:36;12.70;;;9.50;;
60026;SDS011;45891;53.006;6.512;2023-04-24T02:37:03;11.70;;;8.43;;
60026;SDS011;45891;53.006;6.512;2023-04-24T02:39:29;13.60;;;9.90;;
60026;SDS011;45891;53.006;6.512;2023-04-24T02:41:55;13.35;;;8.10;;
60026;SDS011;45891;53.006;6.512;2023-04-24T02:44:21;13.82;;;9.13;;
60026;SDS011;45891;53.006;6.512;2023-04-24T02:46:48;13.52;;;9.95;;
60026;SDS011;45891;53.006;6.512;2023-04-24T02:49:14;13.85;;;9.13;;
60026;SDS011;45891;53.006;6.512;2023-04-24T02:51:40;14.20;;;9.13;;
60026;SDS011;45891;53.006;6.512;2023-04-24T02:54:07;12.38;;;9.73;;
60026;SDS011;45891;53.006;6.512;2023-04-24T02:56:35;11.55;;;8.75;;
60026;SDS011;45891;53.006;6.512;2023-04-24T02:59:01;11.30;;;8.80;;
60026;SDS011;45891;53.006;6.512;2023-04-24T03:01:27;11.95;;;9.02;;
60026;SDS011;45891;53.006;6.512;2023-04-24T03:03:53;12.45;;;8.82;;
60026;SDS011;45891;53.006;6.512;2023-04-24T03:06:19;11.75;;;8.70;;
60026;SDS011;45891;53.006;6.512;2023-04-24T03:08:46;12.20;;;9.25;;
60026;SDS011;45891;53.006;6.512;2023-04-24T03:11:12;10.35;;;7.90;;
60026;SDS011;45891;53.006;6.512;2023-04-24T03:13:38;11.10;;;7.93;;
60026;SDS011;45891;53.006;6.512;2023-04-24T03:16:04;13.85;;;7.80;;
60026;SDS011;45891;53.006;6.512;2023-04-24T03:18:31;10.32;;;7.20;;
60026;SDS011;45891;53.006;6.512;2023-04-24T03:20:57;9.82;;;7.18;;
60026;SDS011;45891;53.006;6.512;2023-04-24T03:23:23;10.18;;;7.35;;
60026;SDS011;45891;53.006;6.512;2023-04-24T03:25:49;10.35;;;6.80;;
60026;SDS011;45891;53.006;6.512;2023-04-24T03:28:15;10.95;;;6.82;;
60026;SDS011;45891;53.006;6.512;2023-04-24T03:30:41;9.88;;;6.82;;
60026;SDS011;45891;53.006;6.512;2023-04-24T03:33:07;9.77;;;5.97;;
60026;SDS011;45891;53.006;6.512;2023-04-24T03:35:33;9.80;;;6.55;;
60026;SDS011;45891;53.006;6.512;2023-04-24T03:37:59;11.95;;;6.75;;
60026;SDS011;45891;53.006;6.512;2023-04-24T03:40:25;10.95;;;6.13;;
60026;SDS011;45891;53.006;6.512;2023-04-24T03:42:52;10.25;;;6.07;;
60026;SDS011;45891;53.006;6.512;2023-04-24T03:45:18;9.35;;;5.80;;
60026;SDS011;45891;53.006;6.512;2023-04-24T03:47:44;10.73;;;5.47;;
60026;SDS011;45891;53.006;6.512;2023-04-24T03:50:11;9.00;;;5.30;;
60026;SDS011;45891;53.006;6.512;2023-04-24T03:52:37;9.48;;;5.40;;
60026;SDS011;45891;53.006;6.512;2023-04-24T03:55:03;10.43;;;5.35;;
60026;SDS011;45891;53.006;6.512;2023-04-24T03:57:29;11.75;;;5.15;;
60026;SDS011;45891;53.006;6.512;2023-04-24T03:59:55;9.43;;;5.20;;
60026;SDS011;45891;53.006;6.512;2023-04-24T04:02:21;10.55;;;4.85;;
60026;SDS011;45891;53.006;6.512;2023-04-24T04:04:47;11.43;;;5.10;;
60026;SDS011;45891;53.006;6.512;2023-04-24T04:07:13;8.40;;;4.50;;
60026;SDS011;45891;53.006;6.512;2023-04-24T04:09:39;10.05;;;5.25;;
60026;SDS011;45891;53.006;6.512;2023-04-24T04:12:05;9.40;;;5.28;;
60026;SDS011;45891;53.006;6.512;2023-04-24T04:14:32;11.02;;;5.55;;
60026;SDS011;45891;53.006;6.512;2023-04-24T04:16:58;10.77;;;5.30;;
60026;SDS011;45891;53.006;6.512;2023-04-24T04:19:24;8.80;;;5.03;;
60026;SDS011;45891;53.006;6.512;2023-04-24T04:21:50;8.70;;;5.20;;
60026;SDS011;45891;53.006;6.512;2023-04-24T04:24:19;10.02;;;5.35;;
60026;SDS011;45891;53.006;6.512;2023-04-24T04:26:46;9.45;;;5.30;;
60026;SDS011;45891;53.006;6.512;2023-04-24T04:29:13;9.10;;;4.97;;
60026;SDS011;45891;53.006;6.512;2023-04-24T04:31:39;9.60;;;5.35;;
60026;SDS011;45891;53.006;6.512;2023-04-24T04:34:05;9.10;;;5.60;;
60026;SDS011;45891;53.006;6.512;2023-04-24T04:36:33;8.98;;;5.45;;
60026;SDS011;45891;53.006;6.512;2023-04-24T04:39:02;9.45;;;4.65;;
60026;SDS011;45891;53.006;6.512;2023-04-24T04:41:29;8.68;;;5.25;;
60026;SDS011;45891;53.006;6.512;2023-04-24T04:43:55;8.77;;;4.35;;
60026;SDS011;45891;53.006;6.512;2023-04-24T04:46:24;8.33;;;4.37;;
60026;SDS011;45891;53.006;6.512;2023-04-24T04:48:52;8.18;;;3.85;;
60026;SDS011;45891;53.006;6.512;2023-04-24T04:51:19;9.27;;;3.70;;
60026;SDS011;45891;53.006;6.512;2023-04-24T04:53:45;7.32;;;3.20;;
60026;SDS011;45891;53.006;6.512;2023-04-24T04:56:11;7.07;;;2.55;;
60026;SDS011;45891;53.006;6.512;2023-04-24T04:58:37;6.30;;;2.20;;
60026;SDS011;45891;53.006;6.512;2023-04-24T05:01:03;5.53;;;1.80;;
60026;SDS011;45891;53.006;6.512;2023-04-24T05:03:30;7.10;;;1.83;;
60026;SDS011;45891;53.006;6.512;2023-04-24T05:05:57;5.38;;;1.63;;
60026;SDS011;45891;53.006;6.512;2023-04-24T05:08:23;6.78;;;1.70;;
60026;SDS011;45891;53.006;6.512;2023-04-24T05:10:49;5.00;;;1.50;;
60026;SDS011;45891;53.006;6.512;2023-04-24T05:13:15;5.32;;;1.70;;
60026;SDS011;45891;53.006;6.512;2023-04-24T05:15:41;5.90;;;1.90;;
60026;SDS011;45891;53.006;6.512;2023-04-24T05:18:07;6.25;;;2.38;;
60026;SDS011;45891;53.006;6.512;2023-04-24T05:20:34;5.80;;;1.90;;
60026;SDS011;45891;53.006;6.512;2023-04-24T05:23:00;5.97;;;2.17;;
60026;SDS011;45891;53.006;6.512;2023-04-24T05:25:26;6.35;;;1.85;;
60026;SDS011;45891;53.006;6.512;2023-04-24T05:27:52;7.60;;;2.13;;
60026;SDS011;45891;53.006;6.512;2023-04-24T05:30:19;7.30;;;2.30;;
60026;SDS011;45891;53.006;6.512;2023-04-24T05:32:45;6.25;;;2.15;;
60026;SDS011;45891;53.006;6.512;2023-04-24T05:35:11;6.65;;;2.38;;
60026;SDS011;45891;53.006;6.512;2023-04-24T05:37:37;7.68;;;2.78;;
60026;SDS011;45891;53.006;6.512;2023-04-24T05:40:04;7.10;;;2.63;;
60026;SDS011;45891;53.006;6.512;2023-04-24T05:42:31;11.70;;;3.10;;
60026;SDS011;45891;53.006;6.512;2023-04-24T05:44:57;8.02;;;2.90;;
60026;SDS011;45891;53.006;6.512;2023-04-24T05:47:23;8.30;;;2.90;;
60026;SDS011;45891;53.006;6.512;2023-04-24T05:49:50;9.55;;;3.30;;
60026;SDS011;45891;53.006;6.512;2023-04-24T05:52:16;9.05;;;3.78;;
60026;SDS011;45891;53.006;6.512;2023-04-24T05:54:42;8.90;;;3.60;;
60026;SDS011;45891;53.006;6.512;2023-04-24T05:57:08;10.32;;;4.20;;
60026;SDS011;45891;53.006;6.512;2023-04-24T05:59:36;11.45;;;4.97;;
60026;SDS011;45891;53.006;6.512;2023-04-24T06:02:06;11.77;;;4.68;;
60026;SDS011;45891;53.006;6.512;2023-04-24T06:04:33;10.07;;;4.32;;
60026;SDS011;45891;53.006;6.512;2023-04-24T06:06:59;11.25;;;4.40;;
60026;SDS011;45891;53.006;6.512;2023-04-24T06:09:25;9.05;;;3.78;;
60026;SDS011;45891;53.006;6.512;2023-04-24T06:11:51;9.10;;;3.65;;
60026;SDS011;45891;53.006;6.512;2023-04-24T06:14:19;9.75;;;3.58;;
60026;SDS011;45891;53.006;6.512;2023-04-24T06:16:45;8.13;;;3.25;;
60026;SDS011;45891;53.006;6.512;2023-04-24T06:19:11;8.23;;;2.95;;
60026;SDS011;45891;53.006;6.512;2023-04-24T06:21:37;8.00;;;3.10;;
60026;SDS011;45891;53.006;6.512;2023-04-24T06:24:03;10.52;;;2.92;;
60026;SDS011;45891;53.006;6.512;2023-04-24T06:26:32;9.68;;;3.13;;
60026;SDS011;45891;53.006;6.512;2023-04-24T06:28:58;9.50;;;3.30;;
60026;SDS011;45891;53.006;6.512;2023-04-24T06:31:25;9.10;;;3.77;;
60026;SDS011;45891;53.006;6.512;2023-04-24T06:33:51;8.57;;;3.95;;
60026;SDS011;45891;53.006;6.512;2023-04-24T06:36:17;9.35;;;3.72;;
60026;SDS011;45891;53.006;6.512;2023-04-24T06:38:43;11.02;;;4.15;;
60026;SDS011;45891;53.006;6.512;2023-04-24T06:41:09;10.57;;;4.63;;
60026;SDS011;45891;53.006;6.512;2023-04-24T06:43:36;11.45;;;4.90;;
60026;SDS011;45891;53.006;6.512;2023-04-24T06:46:02;10.10;;;4.82;;
60026;SDS011;45891;53.006;6.512;2023-04-24T06:48:28;11.80;;;4.80;;
60026;SDS011;45891;53.006;6.512;2023-04-24T06:50:55;12.45;;;5.00;;
60026;SDS011;45891;53.006;6.512;2023-04-24T06:53:21;11.85;;;4.35;;
60026;SDS011;45891;53.006;6.512;2023-04-24T06:55:47;12.57;;;6.43;;
60026;SDS011;45891;53.006;6.512;2023-04-24T06:58:13;13.20;;;6.25;;
60026;SDS011;45891;53.006;6.512;2023-04-24T07:00:40;13.20;;;6.32;;
60026;SDS011;45891;53.006;6.512;2023-04-24T07:03:06;12.23;;;6.20;;
60026;SDS011;45891;53.006;6.512;2023-04-24T07:05:32;13.18;;;6.22;;
60026;SDS011;45891;53.006;6.512;2023-04-24T07:08:00;14.32;;;5.90;;
60026;SDS011;45891;53.006;6.512;2023-04-24T07:10:27;13.43;;;6.32;;
60026;SDS011;45891;53.006;6.512;2023-04-24T07:12:54;11.27;;;5.25;;
60026;SDS011;45891;53.006;6.512;2023-04-24T07:15:22;12.63;;;5.70;;
60026;SDS011;45891;53.006;6.512;2023-04-24T07:17:49;14.75;;;5.20;;
60026;SDS011;45891;53.006;6.512;2023-04-24T07:20:15;12.38;;;5.57;;
60026;SDS011;45891;53.006;6.512;2023-04-24T07:22:41;12.10;;;5.13;;
60026;SDS011;45891;53.006;6.512;2023-04-24T07:25:07;13.93;;;4.70;;
60026;SDS011;45891;53.006;6.512;2023-04-24T07:27:34;11.82;;;3.90;;
60026;SDS011;45891;53.006;6.512;2023-04-24T07:30:02;9.75;;;3.63;;
60026;SDS011;45891;53.006;6.512;2023-04-24T07:32:29;9.80;;;3.78;;
60026;SDS011;45891;53.006;6.512;2023-04-24T07:34:55;10.95;;;3.60;;
60026;SDS011;45891;53.006;6.512;2023-04-24T07:37:22;11.55;;;4.10;;
60026;SDS011;45891;53.006;6.512;2023-04-24T07:39:48;7.43;;;2.97;;
60026;SDS011;45891;53.006;6.512;2023-04-24T07:42:15;11.20;;;3.53;;
60026;SDS011;45891;53.006;6.512;2023-04-24T07:44:41;8.32;;;2.42;;
60026;SDS011;45891;53.006;6.512;2023-04-24T07:47:07;12.15;;;3.15;;
60026;SDS011;45891;53.006;6.512;2023-04-24T07:49:34;9.70;;;3.00;;
60026;SDS011;45891;53.006;6.512;2023-04-24T07:52:00;10.13;;;3.42;;
60026;SDS011;45891;53.006;6.512;2023-04-24T07:54:28;11.63;;;3.13;;
60026;SDS011;45891;53.006;6.512;2023-04-24T07:56:54;13.48;;;3.40;;
60026;SDS011;45891;53.006;6.512;2023-04-24T07:59:20;10.95;;;3.20;;
60026;SDS011;45891;53.006;6.512;2023-04-24T08:01:47;12.02;;;3.13;;
60026;SDS011;45891;53.006;6.512;2023-04-24T08:04:14;8.65;;;3.10;;
60026;SDS011;45891;53.006;6.512;2023-04-24T08:06:40;11.50;;;3.20;;
60026;SDS011;45891;53.006;6.512;2023-04-24T08:09:06;9.02;;;2.97;;
60026;SDS011;45891;53.006;6.512;2023-04-24T08:11:32;11.20;;;3.80;;
60026;SDS011;45891;53.006;6.512;2023-04-24T08:13:59;11.93;;;5.57;;
60026;SDS011;45891;53.006;6.512;2023-04-24T08:16:25;17.75;;;7.85;;
60026;SDS011;45891;53.006;6.512;2023-04-24T08:18:51;23.98;;;9.65;;
60026;SDS011;45891;53.006;6.512;2023-04-24T08:21:18;24.38;;;12.70;;
60026;SDS011;45891;53.006;6.512;2023-04-24T08:23:46;21.42;;;9.95;;
60026;SDS011;45891;53.006;6.512;2023-04-24T08:26:12;18.53;;;9.37;;
60026;SDS011;45891;53.006;6.512;2023-04-24T08:28:38;21.77;;;10.73;;
60026;SDS011;45891;53.006;6.512;2023-04-24T08:31:04;25.20;;;13.18;;
60026;SDS011;45891;53.006;6.512;2023-04-24T08:33:30;22.95;;;10.20;;
60026;SDS011;45891;53.006;6.512;2023-04-24T08:36:03;21.17;;;11.32;;
60026;SDS011;45891;53.006;6.512;2023-04-24T08:38:30;24.25;;;11.82;;
60026;SDS011;45891;53.006;6.512;2023-04-24T08:40:57;21.73;;;12.75;;
60026;SDS011;45891;53.006;6.512;2023-04-24T08:43:25;23.60;;;12.38;;
60026;SDS011;45891;53.006;6.512;2023-04-24T08:45:52;21.52;;;11.88;;
60026;SDS011;45891;53.006;6.512;2023-04-24T08:48:18;27.00;;;13.82;;
60026;SDS011;45891;53.006;6.512;2023-04-24T08:50:44;23.27;;;12.32;;
60026;SDS011;45891;53.006;6.512;2023-04-24T08:53:11;25.02;;;13.85;;
60026;SDS011;45891;53.006;6.512;2023-04-24T08:55:37;21.80;;;11.40;;
60026;SDS011;45891;53.006;6.512;2023-04-24T08:58:04;26.48;;;14.35;;
60026;SDS011;45891;53.006;6.512;2023-04-24T09:00:30;25.30;;;14.40;;
60026;SDS011;45891;53.006;6.512;2023-04-24T09:02:57;21.88;;;10.93;;
60026;SDS011;45891;53.006;6.512;2023-04-24T09:05:26;19.67;;;11.30;;
60026;SDS011;45891;53.006;6.512;2023-04-24T09:07:53;26.40;;;14.63;;
60026;SDS011;45891;53.006;6.512;2023-04-24T09:10:21;23.80;;;15.32;;
60026;SDS011;45891;53.006;6.512;2023-04-24T09:12:50;38.47;;;14.45;;
60026;SDS011;45891;53.006;6.512;2023-04-24T09:15:20;29.40;;;17.10;;
60026;SDS011;45891;53.006;6.512;2023-04-24T09:17:47;25.25;;;15.98;;
60026;SDS011;45891;53.006;6.512;2023-04-24T09:20:13;28.23;;;15.75;;
60026;SDS011;45891;53.006;6.512;2023-04-24T09:22:39;29.13;;;13.95;;
60026;SDS011;45891;53.006;6.512;2023-04-24T09:25:07;24.85;;;14.65;;
60026;SDS011;45891;53.006;6.512;2023-04-24T09:27:34;21.25;;;12.40;;
60026;SDS011;45891;53.006;6.512;2023-04-24T09:30:01;17.50;;;9.73;;
60026;SDS011;45891;53.006;6.512;2023-04-24T09:32:27;18.98;;;10.43;;
60026;SDS011;45891;53.006;6.512;2023-04-24T09:35:05;21.08;;;13.27;;
60026;SDS011;45891;53.006;6.512;2023-04-24T09:37:36;17.55;;;11.00;;
60026;SDS011;45891;53.006;6.512;2023-04-24T09:40:07;17.60;;;9.20;;
60026;SDS011;45891;53.006;6.512;2023-04-24T09:42:35;19.83;;;10.45;;
60026;SDS011;45891;53.006;6.512;2023-04-24T09:45:01;19.30;;;11.27;;
60026;SDS011;45891;53.006;6.512;2023-04-24T09:47:28;19.38;;;10.45;;
60026;SDS011;45891;53.006;6.512;2023-04-24T09:50:08;15.60;;;7.68;;
60026;SDS011;45891;53.006;6.512;2023-04-24T09:52:43;20.95;;;10.63;;
60026;SDS011;45891;53.006;6.512;2023-04-24T09:55:18;17.55;;;9.30;;
60026;SDS011;45891;53.006;6.512;2023-04-24T09:57:55;20.60;;;9.75;;
60026;SDS011;45891;53.006;6.512;2023-04-24T10:00:23;18.08;;;8.63;;
60026;SDS011;45891;53.006;6.512;2023-04-24T10:02:54;20.13;;;8.75;;
60026;SDS011;45891;53.006;6.512;2023-04-24T10:05:35;20.65;;;7.75;;
60026;SDS011;45891;53.006;6.512;2023-04-24T10:08:03;19.85;;;7.72;;
60026;SDS011;45891;53.006;6.512;2023-04-24T10:10:40;17.73;;;7.20;;
60026;SDS011;45891;53.006;6.512;2023-04-24T10:13:08;19.73;;;7.15;;
60026;SDS011;45891;53.006;6.512;2023-04-24T10:15:36;16.67;;;5.65;;
60026;SDS011;45891;53.006;6.512;2023-04-24T10:18:04;14.00;;;5.82;;
60026;SDS011;45891;53.006;6.512;2023-04-24T10:20:31;15.43;;;4.40;;
60026;SDS011;45891;53.006;6.512;2023-04-24T10:22:59;14.68;;;4.05;;
60026;SDS011;45891;53.006;6.512;2023-04-24T10:25:26;18.05;;;4.85;;
60026;SDS011;45891;53.006;6.512;2023-04-24T10:27:54;9.30;;;2.72;;
60026;SDS011;45891;53.006;6.512;2023-04-24T10:30:26;12.18;;;3.70;;
60026;SDS011;45891;53.006;6.512;2023-04-24T10:32:54;13.82;;;4.38;;
60026;SDS011;45891;53.006;6.512;2023-04-24T10:35:20;10.95;;;3.05;;
60026;SDS011;45891;53.006;6.512;2023-04-24T10:38:04;11.27;;;2.70;;
60026;SDS011;45891;53.006;6.512;2023-04-24T10:40:34;13.35;;;3.00;;
60026;SDS011;45891;53.006;6.512;2023-04-24T10:43:07;11.65;;;2.50;;
60026;SDS011;45891;53.006;6.512;2023-04-24T10:45:36;12.48;;;3.33;;
60026;SDS011;45891;53.006;6.512;2023-04-24T10:48:04;11.20;;;2.78;;
60026;SDS011;45891;53.006;6.512;2023-04-24T10:50:52;16.08;;;3.50;;
60026;SDS011;45891;53.006;6.512;2023-04-24T10:53:19;13.07;;;3.35;;
60026;SDS011;45891;53.006;6.512;2023-04-24T10:55:52;11.88;;;2.95;;
60026;SDS011;45891;53.006;6.512;2023-04-24T10:58:36;11.93;;;2.97;;
60026;SDS011;45891;53.006;6.512;2023-04-24T11:01:05;14.02;;;3.00;;
60026;SDS011;45891;53.006;6.512;2023-04-24T11:03:33;14.85;;;3.30;;
60026;SDS011;45891;53.006;6.512;2023-04-24T11:06:01;16.52;;;3.90;;
60026;SDS011;45891;53.006;6.512;2023-04-24T11:08:37;15.93;;;3.33;;
60026;SDS011;45891;53.006;6.512;2023-04-24T11:16:29;9.90;;;2.70;;
60026;SDS011;45891;53.006;6.512;2023-04-24T11:19:06;15.88;;;3.50;;
60026;SDS011;45891;53.006;6.512;2023-04-24T11:24:22;13.05;;;2.72;;
60026;SDS011;45891;53.006;6.512;2023-04-24T11:26:50;12.98;;;2.53;;
60026;SDS011;45891;53.006;6.512;2023-04-24T11:29:19;11.85;;;2.50;;
60026;SDS011;45891;53.006;6.512;2023-04-24T11:31:46;13.10;;;2.72;;
60026;SDS011;45891;53.006;6.512;2023-04-24T11:34:15;12.88;;;2.65;;
60026;SDS011;45891;53.006;6.512;2023-04-24T11:36:45;12.93;;;2.38;;
60026;SDS011;45891;53.006;6.512;2023-04-24T11:39:12;12.80;;;2.30;;
60026;SDS011;45891;53.006;6.512;2023-04-24T11:41:39;12.43;;;2.38;;
60026;SDS011;45891;53.006;6.512;2023-04-24T11:44:06;10.27;;;2.20;;
60026;SDS011;45891;53.006;6.512;2023-04-24T11:46:33;9.05;;;1.98;;
60026;SDS011;45891;53.006;6.512;2023-04-24T11:48:59;14.95;;;2.40;;
60026;SDS011;45891;53.006;6.512;2023-04-24T11:51:26;13.75;;;2.45;;
60026;SDS011;45891;53.006;6.512;2023-04-24T11:53:53;10.10;;;2.20;;
60026;SDS011;45891;53.006;6.512;2023-04-24T11:56:23;16.13;;;2.15;;
60026;SDS011;45891;53.006;6.512;2023-04-24T11:58:53;8.18;;;1.80;;
60026;SDS011;45891;53.006;6.512;2023-04-24T12:01:20;10.05;;;2.10;;
60026;SDS011;45891;53.006;6.512;2023-04-24T12:03:50;7.47;;;1.48;;
60026;SDS011;45891;53.006;6.512;2023-04-24T12:06:19;12.23;;;2.10;;
60026;SDS011;45891;53.006;6.512;2023-04-24T12:08:45;12.40;;;2.42;;
60026;SDS011;45891;53.006;6.512;2023-04-24T12:11:14;9.75;;;2.00;;
60026;SDS011;45891;53.006;6.512;2023-04-24T12:13:42;12.60;;;2.33;;
60026;SDS011;45891;53.006;6.512;2023-04-24T12:16:08;11.15;;;2.35;;
60026;SDS011;45891;53.006;6.512;2023-04-24T12:18:34;11.00;;;2.25;;
60026;SDS011;45891;53.006;6.512;2023-04-24T12:21:22;9.98;;;1.90;;
60026;SDS011;45891;53.006;6.512;2023-04-24T12:23:48;11.20;;;2.15;;
60026;SDS011;45891;53.006;6.512;2023-04-24T12:26:20;11.52;;;2.10;;
60026;SDS011;45891;53.006;6.512;2023-04-24T12:28:48;8.27;;;1.50;;
60026;SDS011;45891;53.006;6.512;2023-04-24T12:31:15;9.57;;;1.60;;
60026;SDS011;45891;53.006;6.512;2023-04-24T12:33:42;11.35;;;1.88;;
60026;SDS011;45891;53.006;6.512;2023-04-24T12:36:11;9.13;;;1.70;;
60026;SDS011;45891;53.006;6.512;2023-04-24T12:38:38;11.13;;;2.13;;
60026;SDS011;45891;53.006;6.512;2023-04-24T12:41:11;9.95;;;1.70;;
60026;SDS011;45891;53.006;6.512;2023-04-24T12:43:38;11.05;;;1.90;;
60026;SDS011;45891;53.006;6.512;2023-04-24T12:46:19;9.97;;;1.50;;
60026;SDS011;45891;53.006;6.512;2023-04-24T12:48:45;8.55;;;1.60;;
60026;SDS011;45891;53.006;6.512;2023-04-24T12:51:11;8.88;;;1.73;;
60026;SDS011;45891;53.006;6.512;2023-04-24T12:53:37;7.57;;;1.45;;
60026;SDS011;45891;53.006;6.512;2023-04-24T12:56:04;10.57;;;1.70;;
60026;SDS011;45891;53.006;6.512;2023-04-24T12:58:30;10.23;;;1.40;;
60026;SDS011;45891;53.006;6.512;2023-04-24T13:00:56;9.80;;;1.50;;
60026;SDS011;45891;53.006;6.512;2023-04-24T13:03:22;13.13;;;1.60;;
60026;SDS011;45891;53.006;6.512;2023-04-24T13:05:48;11.30;;;1.52;;
60026;SDS011;45891;53.006;6.512;2023-04-24T13:08:14;7.63;;;1.20;;
60026;SDS011;45891;53.006;6.512;2023-04-24T13:10:40;9.40;;;1.58;;
60026;SDS011;45891;53.006;6.512;2023-04-24T13:13:07;10.00;;;1.17;;
60026;SDS011;45891;53.006;6.512;2023-04-24T13:15:34;11.45;;;1.50;;
60026;SDS011;45891;53.006;6.512;2023-04-24T13:18:00;9.43;;;1.40;;
60026;SDS011;45891;53.006;6.512;2023-04-24T13:20:26;10.82;;;1.40;;
60026;SDS011;45891;53.006;6.512;2023-04-24T13:22:52;10.27;;;1.60;;
60026;SDS011;45891;53.006;6.512;2023-04-24T13:25:19;12.27;;;2.10;;
60026;SDS011;45891;53.006;6.512;2023-04-24T13:27:45;10.32;;;1.48;;
60026;SDS011;45891;53.006;6.512;2023-04-24T13:30:12;9.98;;;1.20;;
60026;SDS011;45891;53.006;6.512;2023-04-24T13:32:38;5.97;;;1.00;;
60026;SDS011;45891;53.006;6.512;2023-04-24T13:35:04;6.30;;;1.20;;
60026;SDS011;45891;53.006;6.512;2023-04-24T13:37:30;10.27;;;1.20;;
60026;SDS011;45891;53.006;6.512;2023-04-24T13:39:56;7.75;;;1.30;;
60026;SDS011;45891;53.006;6.512;2023-04-24T13:42:23;4.68;;;0.80;;
60026;SDS011;45891;53.006;6.512;2023-04-24T13:44:49;7.15;;;1.15;;
60026;SDS011;45891;53.006;6.512;2023-04-24T13:47:16;7.70;;;1.20;;
60026;SDS011;45891;53.006;6.512;2023-04-24T13:49:42;8.23;;;0.95;;
60026;SDS011;45891;53.006;6.512;2023-04-24T13:52:08;8.02;;;1.20;;
60026;SDS011;45891;53.006;6.512;2023-04-24T13:54:35;5.55;;;1.00;;
60026;SDS011;45891;53.006;6.512;2023-04-24T13:57:03;6.80;;;1.00;;
60026;SDS011;45891;53.006;6.512;2023-04-24T13:59:29;5.18;;;0.90;;
60026;SDS011;45891;53.006;6.512;2023-04-24T14:01:55;8.23;;;1.27;;
60026;SDS011;45891;53.006;6.512;2023-04-24T14:04:21;8.23;;;1.20;;
60026;SDS011;45891;53.006;6.512;2023-04-24T14:06:47;7.25;;;1.40;;
60026;SDS011;45891;53.006;6.512;2023-04-24T14:09:13;10.40;;;1.60;;
60026;SDS011;45891;53.006;6.512;2023-04-24T14:11:40;8.88;;;1.38;;
60026;SDS011;45891;53.006;6.512;2023-04-24T14:14:06;12.25;;;1.67;;
60026;SDS011;45891;53.006;6.512;2023-04-24T14:16:33;11.95;;;2.28;;
60026;SDS011;45891;53.006;6.512;2023-04-24T14:19:00;10.85;;;1.67;;
60026;SDS011;45891;53.006;6.512;2023-04-24T14:21:26;12.95;;;1.75;;
60026;SDS011;45891;53.006;6.512;2023-04-24T14:23:52;13.98;;;1.85;;
60026;SDS011;45891;53.006;6.512;2023-04-24T14:26:19;9.38;;;1.60;;
60026;SDS011;45891;53.006;6.512;2023-04-24T14:28:45;13.25;;;2.13;;
60026;SDS011;45891;53.006;6.512;2023-04-24T14:31:11;14.57;;;2.70;;
60026;SDS011;45891;53.006;6.512;2023-04-24T14:33:37;13.00;;;2.20;;
60026;SDS011;45891;53.006;6.512;2023-04-24T14:36:03;16.13;;;2.67;;
60026;SDS011;45891;53.006;6.512;2023-04-24T14:38:31;16.00;;;2.50;;
60026;SDS011;45891;53.006;6.512;2023-04-24T14:40:57;13.43;;;2.25;;
60026;SDS011;45891;53.006;6.512;2023-04-24T14:43:23;11.20;;;2.58;;
60026;SDS011;45891;53.006;6.512;2023-04-24T14:45:49;16.52;;;2.33;;